createdAt,value
2022-11-25T00:01:07.134Z,100327.72
2022-11-25T00:03:36.125Z,100315.75
2022-11-25T00:06:12.965Z,100323.63
2022-11-25T00:08:41.339Z,100321.66
2022-11-25T00:11:09.514Z,100315.34
2022-11-25T00:13:37.393Z,100312.28
2022-11-25T00:16:06.158Z,100309.53
2022-11-25T00:18:34.065Z,100292.31
2022-11-25T00:21:05.949Z,100291.72
2022-11-25T00:23:35.276Z,100280.22
2022-11-25T00:26:06.953Z,100281.34
2022-11-25T00:28:34.918Z,100281.53
2022-11-25T00:31:06.909Z,100283.59
2022-11-25T00:33:34.975Z,100277.78
2022-11-25T00:36:03.386Z,100280.63
2022-11-25T00:38:31.338Z,100280.28
2022-11-25T00:41:14.484Z,100284.13
2022-11-25T00:43:59.988Z,100287.34
2022-11-25T00:46:27.972Z,100285.81
2022-11-25T00:48:55.801Z,100284.13
2022-11-25T00:51:23.671Z,100287.56
2022-11-25T00:53:55.961Z,100286.72
2022-11-25T00:56:28.056Z,100286.94
2022-11-25T00:58:55.868Z,100285.31
2022-11-25T01:01:23.734Z,100297.50
2022-11-25T01:03:51.906Z,100281.78
2022-11-25T01:06:19.725Z,100286.94
2022-11-25T01:08:47.702Z,100292.03
2022-11-25T01:11:16.431Z,100290.19
2022-11-25T01:13:45.591Z,100286.75
2022-11-25T01:16:14.477Z,100285.09
2022-11-25T01:18:42.855Z,100276.06
2022-11-25T01:21:12.363Z,100283.50
2022-11-25T01:23:40.657Z,100284.53
2022-11-25T01:26:09.679Z,100283.16
2022-11-25T01:28:37.527Z,100281.19
2022-11-25T01:31:08.648Z,100272.75
2022-11-25T01:33:36.740Z,100283.41
2022-11-25T01:36:05.269Z,100286.47
2022-11-25T01:38:33.871Z,100282.63
2022-11-25T01:41:02.060Z,100280.72
2022-11-25T01:43:29.980Z,100265.78
2022-11-25T01:45:59.329Z,100269.59
2022-11-25T01:48:30.207Z,100275.38
2022-11-25T01:50:58.162Z,100273.41
2022-11-25T01:53:26.128Z,100274.78
2022-11-25T01:55:57.446Z,100276.66
2022-11-25T01:58:28.274Z,100281.41
2022-11-25T02:00:56.148Z,100272.38
2022-11-25T02:03:25.830Z,100282.69
2022-11-25T02:05:58.499Z,100265.72
2022-11-25T02:08:27.396Z,100265.19
2022-11-25T02:10:56.373Z,100267.41
2022-11-25T02:13:24.596Z,100257.56
2022-11-25T02:15:52.423Z,100253.97
2022-11-25T02:18:20.213Z,100251.88
2022-11-25T02:20:48.103Z,100247.56
2022-11-25T02:23:22.100Z,100248.84
2022-11-25T02:25:51.387Z,100245.03
2022-11-25T02:28:20.004Z,100245.63
2022-11-25T02:30:48.282Z,100242.66
2022-11-25T02:33:16.493Z,100229.28
2022-11-25T02:35:45.952Z,100232.63
2022-11-25T02:38:16.302Z,100231.00
2022-11-25T02:40:46.869Z,100232.00
2022-11-25T02:43:16.539Z,100234.25
2022-11-25T02:45:53.189Z,100233.91
2022-11-25T02:48:34.487Z,100237.50
2022-11-25T02:51:11.631Z,100225.34
2022-11-25T02:53:39.974Z,100232.53
2022-11-25T02:56:08.582Z,100233.56
2022-11-25T02:58:37.779Z,100237.97
2022-11-25T03:01:05.905Z,100235.09
2022-11-25T03:03:34.022Z,100235.38
2022-11-25T03:06:02.079Z,100248.19
2022-11-25T03:08:30.091Z,100242.69
2022-11-25T03:10:57.890Z,100241.44
2022-11-25T03:13:26.024Z,100242.16
2022-11-25T03:15:55.356Z,100252.91
2022-11-25T03:18:23.355Z,100257.41
2022-11-25T03:20:52.978Z,100249.97
2022-11-25T03:23:21.210Z,100242.94
2022-11-25T03:25:49.004Z,100266.47
2022-11-25T03:28:16.813Z,100258.75
2022-11-25T03:30:44.800Z,100263.22
2022-11-25T03:33:13.976Z,100262.75
2022-11-25T03:35:41.884Z,100267.59
2022-11-25T03:38:09.729Z,100266.06
2022-11-25T03:40:37.589Z,100258.59
2022-11-25T03:43:05.582Z,100269.50
2022-11-25T03:45:33.419Z,100276.63
2022-11-25T03:48:01.236Z,100274.09
2022-11-25T03:50:30.451Z,100271.69
2022-11-25T03:52:58.272Z,100272.19
2022-11-25T03:55:26.276Z,100278.16
2022-11-25T03:57:54.186Z,100281.31
2022-11-25T04:00:22.052Z,100276.97
2022-11-25T04:02:49.935Z,100282.31
2022-11-25T04:05:18.012Z,100284.75
2022-11-25T04:07:47.416Z,100280.00
2022-11-25T04:10:15.260Z,100281.63
2022-11-25T04:12:48.166Z,100281.94
2022-11-25T04:15:16.867Z,100282.69
2022-11-25T04:17:44.767Z,100287.28
2022-11-25T04:20:13.330Z,100288.38
2022-11-25T04:22:41.266Z,100286.97
2022-11-25T04:25:11.284Z,100286.50
2022-11-25T04:27:39.307Z,100290.69
2022-11-25T04:30:08.011Z,100289.31
2022-11-25T04:32:37.487Z,100301.00
2022-11-25T04:35:05.652Z,100298.56
2022-11-25T04:37:33.505Z,100308.84
2022-11-25T04:40:01.470Z,100306.91
2022-11-25T04:42:36.393Z,100310.69
2022-11-25T04:45:22.536Z,100306.63
2022-11-25T04:47:51.983Z,100316.38
2022-11-25T04:50:21.748Z,100314.22
2022-11-25T04:52:49.603Z,100310.63
2022-11-25T04:55:17.562Z,100312.59
2022-11-25T04:57:46.725Z,100316.03
2022-11-25T05:00:14.068Z,100318.50
2022-11-25T05:02:42.010Z,100324.78
2022-11-25T05:05:10.190Z,100330.50
2022-11-25T05:07:38.602Z,100343.06
2022-11-25T05:10:07.244Z,100338.69
2022-11-25T05:12:35.605Z,100345.84
2022-11-25T05:15:05.845Z,100346.66
2022-11-25T05:17:33.645Z,100343.69
2022-11-25T05:20:01.446Z,100342.63
2022-11-25T05:22:30.069Z,100353.50
2022-11-25T05:24:58.467Z,100354.78
2022-11-25T05:27:27.584Z,100343.88
2022-11-25T05:29:56.316Z,100350.78
2022-11-25T05:32:25.768Z,100347.56
2022-11-25T05:34:53.595Z,100350.22
2022-11-25T05:37:24.548Z,100360.13
2022-11-25T05:39:52.905Z,100360.97
2022-11-25T05:42:20.742Z,100357.16
2022-11-25T05:44:48.573Z,100355.53
2022-11-25T05:47:16.406Z,100364.78
2022-11-25T05:49:45.599Z,100361.25
2022-11-25T05:52:13.575Z,100364.41
2022-11-25T05:54:41.495Z,100364.09
2022-11-25T05:57:09.339Z,100366.56
2022-11-25T05:59:37.177Z,100374.72
2022-11-25T06:02:05.033Z,100373.09
2022-11-25T06:04:33.028Z,100381.34
2022-11-25T06:07:02.231Z,100372.53
2022-11-25T06:09:30.053Z,100380.69
2022-11-25T06:11:57.888Z,100380.19
2022-11-25T06:14:25.730Z,100363.28
2022-11-25T06:16:53.796Z,100360.59
2022-11-25T06:19:21.601Z,100376.88
2022-11-25T06:21:49.625Z,100364.91
2022-11-25T06:24:18.727Z,100380.13
2022-11-25T06:26:46.519Z,100381.88
2022-11-25T06:29:14.503Z,100388.88
2022-11-25T06:31:42.419Z,100397.88
2022-11-25T06:34:10.367Z,100400.94
2022-11-25T06:36:38.209Z,100415.09
2022-11-25T06:39:06.050Z,100412.91
2022-11-25T06:41:35.415Z,100416.13
2022-11-25T06:44:03.278Z,100414.81
2022-11-25T06:46:31.443Z,100408.28
2022-11-25T06:49:14.264Z,100403.97
2022-11-25T06:51:42.360Z,100416.78
2022-11-25T06:54:10.407Z,100433.88
2022-11-25T06:56:40.296Z,100437.44
2022-11-25T06:59:08.612Z,100437.97
2022-11-25T07:01:36.487Z,100444.50
2022-11-25T07:04:05.613Z,100438.25
2022-11-25T07:06:33.516Z,100437.13
2022-11-25T07:09:01.401Z,100443.97
2022-11-25T07:11:30.619Z,100447.28
2022-11-25T07:14:00.644Z,100463.03
2022-11-25T07:16:28.995Z,100457.59
2022-11-25T07:18:56.969Z,100468.50
2022-11-25T07:21:26.007Z,100479.38
2022-11-25T07:23:54.187Z,100473.97
2022-11-25T07:26:23.222Z,100489.75
2022-11-25T07:28:51.860Z,100489.19
2022-11-25T07:31:24.758Z,100481.06
2022-11-25T07:34:03.352Z,100488.66
2022-11-25T07:36:32.314Z,100491.63
2022-11-25T07:39:01.797Z,100498.97
2022-11-25T07:41:30.123Z,100502.25
2022-11-25T07:44:00.340Z,100499.00
2022-11-25T07:46:31.809Z,100504.16
2022-11-25T07:49:00.892Z,100498.97
2022-11-25T07:51:29.744Z,100503.09
2022-11-25T07:53:58.428Z,100503.38
2022-11-25T07:56:32.439Z,100503.44
2022-11-25T07:59:00.315Z,100512.72
2022-11-25T08:01:29.953Z,100519.56
2022-11-25T08:03:58.271Z,100523.91
2022-11-25T08:06:27.819Z,100523.91
2022-11-25T08:08:56.379Z,100531.22
2022-11-25T08:11:25.023Z,100533.34
2022-11-25T08:13:52.856Z,100537.69
2022-11-25T08:16:21.762Z,100541.50
2022-11-25T08:18:51.399Z,100535.75
2022-11-25T08:21:26.025Z,100543.09
2022-11-25T08:23:54.266Z,100546.25
2022-11-25T08:26:24.180Z,100553.03
2022-11-25T08:28:52.479Z,100546.22
2022-11-25T08:31:26.225Z,100555.72
2022-11-25T08:33:56.002Z,100544.94
2022-11-25T08:36:24.293Z,100548.94
2022-11-25T08:38:54.138Z,100555.22
2022-11-25T08:41:23.485Z,100571.53
2022-11-25T08:43:51.449Z,100557.53
2022-11-25T08:46:21.862Z,100562.56
2022-11-25T08:48:50.890Z,100562.72
2022-11-25T08:51:21.803Z,100571.72
2022-11-25T08:53:51.109Z,100568.38
2022-11-25T08:56:26.077Z,100575.75
2022-11-25T08:58:54.590Z,100570.91
2022-11-25T09:01:23.351Z,100567.16
2022-11-25T09:03:52.913Z,100568.81
2022-11-25T09:06:22.264Z,100572.91
2022-11-25T09:08:50.094Z,100562.69
2022-11-25T09:11:18.365Z,100574.88
2022-11-25T09:13:46.280Z,100571.41
2022-11-25T09:16:15.146Z,100578.63
2022-11-25T09:18:43.026Z,100567.84
2022-11-25T09:21:11.737Z,100574.41
2022-11-25T09:23:41.050Z,100579.78
2022-11-25T09:26:09.064Z,100585.22
2022-11-25T09:28:37.305Z,100579.47
2022-11-25T09:31:08.585Z,100590.63
2022-11-25T09:33:36.795Z,100592.19
2022-11-25T09:36:06.049Z,100591.88
2022-11-25T09:38:35.677Z,100601.16
2022-11-25T09:41:09.664Z,100597.31
2022-11-25T09:44:04.589Z,100604.44
2022-11-25T09:46:42.806Z,100609.41
2022-11-25T09:49:15.367Z,100622.50
2022-11-25T09:51:49.975Z,100613.91
2022-11-25T09:54:22.496Z,100613.41
2022-11-25T09:56:54.270Z,100611.34
2022-11-25T09:59:26.034Z,100614.66
2022-11-25T10:01:55.484Z,100627.00
2022-11-25T10:04:27.083Z,100623.22
2022-11-25T10:06:58.072Z,100636.22
2022-11-25T10:09:26.916Z,100638.13
2022-11-25T10:11:57.720Z,100644.91
2022-11-25T10:14:30.109Z,100643.91
2022-11-25T10:17:01.234Z,100650.31
2022-11-25T10:19:37.303Z,100650.75
2022-11-25T10:22:13.071Z,100657.81
2022-11-25T10:24:43.735Z,100643.31
2022-11-25T10:27:18.892Z,100659.41
2022-11-25T10:29:50.868Z,100649.09
2022-11-25T10:32:23.256Z,100655.00
2022-11-25T10:34:53.667Z,100666.75
2022-11-25T10:37:26.528Z,100662.38
2022-11-25T10:39:56.573Z,100658.97
2022-11-25T10:42:26.936Z,100667.75
2022-11-25T10:44:55.872Z,100673.53
2022-11-25T10:47:30.005Z,100673.19
2022-11-25T10:50:04.743Z,100682.66
2022-11-25T10:52:36.247Z,100671.97
2022-11-25T10:55:10.438Z,100665.69
2022-11-25T10:57:39.904Z,100672.31
2022-11-25T11:00:14.112Z,100671.00
2022-11-25T11:02:48.303Z,100666.03
2022-11-25T11:05:19.726Z,100665.44
2022-11-25T11:07:47.769Z,100680.16
2022-11-25T11:10:22.122Z,100686.13
2022-11-25T11:12:59.177Z,100678.56
2022-11-25T11:15:31.374Z,100683.56
2022-11-25T11:18:00.643Z,100668.13
2022-11-25T11:20:30.266Z,100685.78
2022-11-25T11:23:07.019Z,100697.91
2022-11-25T11:25:37.581Z,100691.59
2022-11-25T11:28:27.346Z,100693.63
2022-11-25T11:30:57.742Z,100705.06
2022-11-25T11:33:37.751Z,100706.09
2022-11-25T11:36:11.611Z,100704.47
2022-11-25T11:38:45.988Z,100703.59
2022-11-25T11:41:16.870Z,100703.84
2022-11-25T11:43:56.468Z,100702.03
2022-11-25T11:46:29.776Z,100707.59
2022-11-25T11:49:03.779Z,100706.78
2022-11-25T11:51:40.738Z,100710.88
2022-11-25T11:54:11.014Z,100706.44
2022-11-25T11:56:40.775Z,100709.63
2022-11-25T11:59:32.284Z,100717.19
2022-11-25T12:02:10.260Z,100708.19
2022-11-25T12:04:41.512Z,100712.97
2022-11-25T12:07:15.786Z,100723.72
2022-11-25T12:09:46.152Z,100722.19
2022-11-25T12:12:16.267Z,100728.13
2022-11-25T12:14:47.413Z,100724.59
2022-11-25T12:17:19.040Z,100724.16
2022-11-25T12:19:51.169Z,100731.16
2022-11-25T12:22:22.337Z,100742.13
2022-11-25T12:24:52.225Z,100746.25
2022-11-25T12:27:23.340Z,100746.28
2022-11-25T12:29:54.099Z,100746.97
2022-11-25T12:32:39.092Z,100762.94
2022-11-25T12:35:14.793Z,100756.88
2022-11-25T12:37:46.562Z,100763.16
2022-11-25T12:40:16.376Z,100760.13
2022-11-25T12:42:45.188Z,100764.81
2022-11-25T12:45:16.666Z,100775.25
2022-11-25T12:47:46.243Z,100772.09
2022-11-25T12:50:17.054Z,100774.59
2022-11-25T12:52:50.711Z,100776.22
2022-11-25T12:55:20.848Z,100785.09
2022-11-25T12:58:07.111Z,100782.34
2022-11-25T13:00:43.815Z,100791.63
2022-11-25T13:03:26.738Z,100802.00
2022-11-25T13:06:10.517Z,100800.66
2022-11-25T13:08:51.427Z,100801.28
2022-11-25T13:11:30.415Z,100804.72
2022-11-25T13:14:00.691Z,100807.69
2022-11-25T13:16:29.594Z,100817.53
2022-11-25T13:18:59.011Z,100821.00
2022-11-25T13:21:28.930Z,100822.44
2022-11-25T13:23:58.498Z,100818.63
2022-11-25T13:26:47.688Z,100826.88
2022-11-25T13:29:34.462Z,100824.13
2022-11-25T13:32:03.247Z,100832.28
2022-11-25T13:34:32.958Z,100834.19
2022-11-25T13:37:01.755Z,100844.84
2022-11-25T13:39:31.035Z,100853.97
2022-11-25T13:42:00.799Z,100854.97
2022-11-25T13:44:32.246Z,100847.31
2022-11-25T13:47:02.825Z,100848.81
2022-11-25T13:49:39.511Z,100857.47
2022-11-25T13:52:26.980Z,100865.66
2022-11-25T13:54:56.576Z,100875.75
2022-11-25T13:57:28.530Z,100871.63
2022-11-25T13:59:57.822Z,100882.34
2022-11-25T14:02:45.070Z,100878.06
2022-11-25T14:05:37.452Z,100889.59
2022-11-25T14:08:11.982Z,100896.72
2022-11-25T14:10:45.772Z,100891.59
2022-11-25T14:13:24.511Z,100895.06
2022-11-25T14:16:06.551Z,100894.34
2022-11-25T14:19:28.204Z,100905.31
2022-11-25T14:21:48.878Z,100904.25
2022-11-25T14:24:24.527Z,100909.53
2022-11-25T14:26:52.879Z,100905.06
2022-11-25T14:29:22.411Z,100910.47
2022-11-25T14:31:52.150Z,100904.75
2022-11-25T14:34:21.956Z,100909.59
2022-11-25T14:36:51.818Z,100910.25
2022-11-25T14:39:22.899Z,100910.47
2022-11-25T14:41:53.454Z,100912.75
2022-11-25T14:44:23.478Z,100921.41
2022-11-25T14:46:54.114Z,100921.53
2022-11-25T14:49:46.612Z,100924.81
2022-11-25T14:52:11.011Z,100927.63
2022-11-25T14:54:42.923Z,100940.28
2022-11-25T14:57:11.111Z,100941.44
2022-11-25T14:59:44.974Z,100942.56
2022-11-25T15:02:24.194Z,100944.81
2022-11-25T15:04:52.417Z,100945.88
2022-11-25T15:07:26.313Z,100942.56
2022-11-25T15:09:58.902Z,100948.19
2022-11-25T15:12:29.860Z,100951.50
2022-11-25T15:14:58.014Z,100959.22
2022-11-25T15:17:27.871Z,100962.97
2022-11-25T15:19:57.496Z,100958.41
2022-11-25T15:22:25.682Z,100960.25
2022-11-25T15:24:55.851Z,100967.06
2022-11-25T15:27:26.862Z,100963.31
2022-11-25T15:29:55.325Z,100970.00
2022-11-25T15:32:25.506Z,100976.09
2022-11-25T15:34:54.328Z,100987.75
2022-11-25T15:37:23.953Z,100986.19
2022-11-25T15:40:09.355Z,100992.25
2022-11-25T15:42:38.690Z,100994.25
2022-11-25T15:45:10.940Z,101001.69
2022-11-25T15:47:38.945Z,100993.22
2022-11-25T15:50:14.258Z,100997.44
2022-11-25T15:52:45.972Z,101007.28
2022-11-25T15:55:19.828Z,101019.50
2022-11-25T15:57:52.021Z,101018.19
2022-11-25T16:00:21.118Z,101030.75
2022-11-25T16:02:51.093Z,101025.28
2022-11-25T16:05:25.060Z,101036.41
2022-11-25T16:08:00.566Z,101041.81
2022-11-25T16:10:29.819Z,101037.44
2022-11-25T16:13:21.415Z,101043.59
2022-11-25T16:15:52.049Z,101035.88
2022-11-25T16:21:11.428Z,101055.59
2022-11-25T16:23:41.117Z,101055.84
2022-11-25T16:26:15.701Z,101056.66
2022-11-25T16:28:52.470Z,101061.81
2022-11-25T16:31:20.853Z,101066.47
2022-11-25T16:33:48.948Z,101066.53
2022-11-25T16:36:20.506Z,101071.56
2022-11-25T16:38:52.155Z,101079.25
2022-11-25T16:41:21.769Z,101088.09
2022-11-25T16:43:55.969Z,101090.06
2022-11-25T16:46:28.144Z,101092.53
2022-11-25T16:48:56.245Z,101096.13
2022-11-25T16:51:24.735Z,101107.06
2022-11-25T16:53:52.532Z,101101.03
2022-11-25T16:56:24.263Z,101107.88
2022-11-25T16:58:54.667Z,101111.16
2022-11-25T17:01:24.181Z,101120.44
2022-11-25T17:03:52.271Z,101125.91
2022-11-25T17:06:22.374Z,101123.16
2022-11-25T17:08:51.463Z,101132.44
2022-11-25T17:11:22.388Z,101136.81
2022-11-25T17:13:51.558Z,101134.34
2022-11-25T17:16:22.783Z,101142.81
2022-11-25T17:18:51.184Z,101151.00
2022-11-25T17:21:19.151Z,101155.91
2022-11-25T17:23:50.235Z,101161.69
2022-11-25T17:26:22.971Z,101161.09
2022-11-25T17:28:52.887Z,101170.13
2022-11-25T17:31:22.367Z,101172.28
2022-11-25T17:33:50.752Z,101178.03
2022-11-25T17:36:18.591Z,101185.41
2022-11-25T17:38:46.755Z,101178.03
2022-11-25T17:41:15.140Z,101188.41
2022-11-25T17:43:43.724Z,101191.66
2022-11-25T17:46:12.899Z,101199.56
2022-11-25T17:48:53.142Z,101201.50
2022-11-25T17:51:20.937Z,101202.28
2022-11-25T17:53:49.037Z,101200.38
2022-11-25T17:56:19.510Z,101218.13
2022-11-25T17:58:47.399Z,101220.06
2022-11-25T18:01:15.464Z,101226.06
2022-11-25T18:03:43.347Z,101223.03
2022-11-25T18:06:12.568Z,101227.66
2022-11-25T18:08:40.354Z,101223.31
2022-11-25T18:11:08.435Z,101229.59
2022-11-25T18:13:37.895Z,101234.78
2022-11-25T18:16:06.371Z,101235.03
2022-11-25T18:18:34.747Z,101249.50
2022-11-25T18:21:02.707Z,101249.81
2022-11-25T18:23:31.862Z,101257.44
2022-11-25T18:26:01.928Z,101260.19
2022-11-25T18:28:30.957Z,101256.63
2022-11-25T18:31:00.916Z,101262.91
2022-11-25T18:33:29.821Z,101264.81
2022-11-25T18:35:58.006Z,101276.00
2022-11-25T18:38:27.175Z,101273.84
2022-11-25T18:40:56.911Z,101278.72
2022-11-25T18:43:27.064Z,101282.56
2022-11-25T18:45:55.869Z,101283.38
2022-11-25T18:48:25.182Z,101295.09
2022-11-25T18:50:54.915Z,101300.53
2022-11-25T18:53:26.417Z,101298.38
2022-11-25T18:55:56.142Z,101302.16
2022-11-25T18:58:25.438Z,101306.25
2022-11-25T19:00:55.476Z,101314.44
2022-11-25T19:03:25.809Z,101312.56
2022-11-25T19:05:55.391Z,101318.53
2022-11-25T19:08:23.657Z,101324.56
2022-11-25T19:10:52.142Z,101325.94
2022-11-25T19:13:23.031Z,101321.81
2022-11-25T19:15:51.322Z,101325.03
2022-11-25T19:18:24.142Z,101339.22
2022-11-25T19:20:52.601Z,101345.28
2022-11-25T19:23:25.397Z,101342.31
2022-11-25T19:25:54.312Z,101347.47
2022-11-25T19:28:23.979Z,101347.19
2022-11-25T19:30:56.392Z,101358.31
2022-11-25T19:33:28.397Z,101362.44
2022-11-25T19:35:56.573Z,101365.16
2022-11-25T19:38:26.296Z,101366.50
2022-11-25T19:40:54.767Z,101377.88
2022-11-25T19:43:26.924Z,101376.41
2022-11-25T19:45:55.680Z,101381.50
2022-11-25T19:48:25.020Z,101383.75
2022-11-25T19:50:59.502Z,101391.91
2022-11-25T19:53:33.541Z,101398.47
2022-11-25T19:56:04.435Z,101408.56
2022-11-25T19:58:35.227Z,101413.47
2022-11-25T20:01:04.676Z,101410.28
2022-11-25T20:03:33.123Z,101411.56
2022-11-25T20:06:01.681Z,101415.91
2022-11-25T20:08:29.983Z,101419.94
2022-11-25T20:10:58.522Z,101422.28
2022-11-25T20:13:26.478Z,101425.78
2022-11-25T20:15:56.980Z,101429.59
2022-11-25T20:18:28.691Z,101430.97
2022-11-25T20:21:01.115Z,101438.63
2022-11-25T20:23:30.850Z,101441.53
2022-11-25T20:25:59.625Z,101449.59
2022-11-25T20:28:29.948Z,101450.50
2022-11-25T20:30:59.827Z,101450.97
2022-11-25T20:33:28.207Z,101461.25
2022-11-25T20:36:07.629Z,101469.22
2022-11-25T20:38:37.257Z,101474.22
2022-11-25T20:41:06.531Z,101469.59
2022-11-25T20:43:36.682Z,101475.66
2022-11-25T20:46:06.947Z,101478.38
2022-11-25T20:48:37.998Z,101477.09
2022-11-25T20:51:07.919Z,101488.72
2022-11-25T20:53:36.215Z,101491.72
2022-11-25T20:56:04.699Z,101492.69
2022-11-25T20:58:32.978Z,101494.13
2022-11-25T21:01:01.026Z,101503.28
2022-11-25T21:03:30.363Z,101499.00
2022-11-25T21:05:58.836Z,101512.91
2022-11-25T21:08:30.003Z,101511.53
2022-11-25T21:10:59.489Z,101511.09
2022-11-25T21:13:28.564Z,101512.66
2022-11-25T21:15:57.627Z,101520.66
2022-11-25T21:18:25.855Z,101516.25
2022-11-25T21:20:57.286Z,101523.16
2022-11-25T21:23:28.074Z,101524.00
2022-11-25T21:25:57.973Z,101526.31
2022-11-25T21:28:27.982Z,101530.22
2022-11-25T21:30:55.824Z,101538.28
2022-11-25T21:33:23.660Z,101535.78
2022-11-25T21:35:51.452Z,101539.63
2022-11-25T21:38:23.568Z,101537.88
2022-11-25T21:40:53.207Z,101547.44
2022-11-25T21:43:22.078Z,101548.94
2022-11-25T21:45:53.156Z,101548.31
2022-11-25T21:48:22.012Z,101556.91
2022-11-25T21:50:50.173Z,101563.91
2022-11-25T21:53:18.287Z,101566.13
2022-11-25T21:55:47.990Z,101569.25
2022-11-25T21:58:18.349Z,101581.81
2022-11-25T22:00:47.398Z,101579.34
2022-11-25T22:03:16.104Z,101572.56
2022-11-25T22:05:44.369Z,101580.31
2022-11-25T22:08:12.346Z,101591.81
2022-11-25T22:10:41.486Z,101588.63
2022-11-25T22:13:13.228Z,101593.13
2022-11-25T22:15:41.199Z,101600.38
2022-11-25T22:18:14.583Z,101602.19
2022-11-25T22:20:42.536Z,101606.38
2022-11-25T22:23:14.496Z,101603.84
2022-11-25T22:25:42.623Z,101605.31
2022-11-25T22:28:13.880Z,101602.69
2022-11-25T22:30:43.528Z,101609.91
2022-11-25T22:33:11.494Z,101607.69
2022-11-25T22:35:40.263Z,101599.53
2022-11-25T22:38:13.540Z,101623.72
2022-11-25T22:40:41.981Z,101619.25
2022-11-25T22:43:14.528Z,101625.97
2022-11-25T22:45:44.222Z,101624.50
2022-11-25T22:48:15.662Z,101628.50
2022-11-25T22:50:45.399Z,101634.19
2022-11-25T22:53:14.520Z,101636.22
2022-11-25T22:55:42.423Z,101638.72
2022-11-25T22:58:11.294Z,101645.09
2022-11-25T23:00:41.948Z,101651.03
2022-11-25T23:03:16.045Z,101652.19
2022-11-25T23:05:44.068Z,101663.44
2022-11-25T23:08:13.571Z,101661.31
2022-11-25T23:10:41.813Z,101664.84
2022-11-25T23:13:09.891Z,101661.38
2022-11-25T23:15:38.057Z,101674.88
2022-11-25T23:18:08.447Z,101669.03
2022-11-25T23:20:38.739Z,101671.69
2022-11-25T23:23:13.228Z,101675.53
2022-11-25T23:25:41.287Z,101677.44
2022-11-25T23:28:09.487Z,101675.00
2022-11-25T23:30:37.750Z,101676.41
2022-11-25T23:33:10.220Z,101685.13
2022-11-25T23:35:39.984Z,101682.44
2022-11-25T23:38:11.867Z,101693.19
2022-11-25T23:40:39.832Z,101698.84
2022-11-25T23:43:12.241Z,101692.13
2022-11-25T23:45:46.661Z,101688.22
2022-11-25T23:48:14.999Z,101690.56
2022-11-25T23:50:44.243Z,101687.63
2022-11-25T23:53:16.246Z,101697.75
2022-11-25T23:55:44.252Z,101703.19
2022-11-25T23:58:15.714Z,101712.38
